createdAt,value
2018-02-23T00:00:46.236Z,26.40
2018-02-23T00:01:46.208Z,24.50
2018-02-23T00:02:46.178Z,24.80
2018-02-23T00:03:46.156Z,26.30
2018-02-23T00:04:46.141Z,25.10
2018-02-23T00:05:46.109Z,24.30
2018-02-23T00:06:46.088Z,26.60
2018-02-23T00:07:46.063Z,25.10
2018-02-23T00:08:46.044Z,28.10
2018-02-23T00:09:46.015Z,25.60
2018-02-23T00:10:45.995Z,26.40
2018-02-23T00:11:45.967Z,27.20
2018-02-23T00:12:45.948Z,26.10
2018-02-23T00:13:45.928Z,25.90
2018-02-23T00:14:45.899Z,24.00
2018-02-23T00:15:45.888Z,25.00
2018-02-23T00:16:45.862Z,27.70
2018-02-23T00:17:45.832Z,26.50
2018-02-23T00:18:45.808Z,27.00
2018-02-23T00:19:45.783Z,27.80
2018-02-23T00:20:45.761Z,26.40
2018-02-23T00:21:45.737Z,26.00
2018-02-23T00:22:45.724Z,27.10
2018-02-23T00:23:45.698Z,27.40
2018-02-23T00:24:45.680Z,27.60
2018-02-23T00:25:45.647Z,29.00
2018-02-23T00:26:45.627Z,27.20
2018-02-23T00:27:45.598Z,29.20
2018-02-23T00:28:45.580Z,26.30
2018-02-23T00:29:45.563Z,28.30
2018-02-23T00:30:45.531Z,28.10
2018-02-23T00:31:45.509Z,28.30
2018-02-23T00:32:45.493Z,28.40
2018-02-23T00:33:45.471Z,30.40
2018-02-23T00:34:45.439Z,28.10
2018-02-23T00:35:45.419Z,29.50
2018-02-23T00:36:45.454Z,28.10
2018-02-23T00:37:45.371Z,28.70
2018-02-23T00:38:45.346Z,28.60
2018-02-23T00:39:45.328Z,28.40
2018-02-23T00:40:45.297Z,29.80
2018-02-23T00:41:45.278Z,30.60
2018-02-23T00:42:45.261Z,26.10
2018-02-23T00:43:45.226Z,26.90
2018-02-23T00:44:45.219Z,28.00
2018-02-23T00:45:45.181Z,30.50
2018-02-23T00:46:45.159Z,29.30
2018-02-23T00:47:45.138Z,27.50
2018-02-23T00:48:45.119Z,29.60
2018-02-23T00:49:45.101Z,27.30
2018-02-23T00:50:45.072Z,28.40
2018-02-23T00:51:45.047Z,31.40
2018-02-23T00:52:45.020Z,30.40
2018-02-23T00:53:44.999Z,32.90
2018-02-23T00:54:44.980Z,27.40
2018-02-23T00:55:44.959Z,30.30
2018-02-23T00:56:44.931Z,30.20
2018-02-23T00:57:44.903Z,30.90
2018-02-23T00:58:44.878Z,30.80
2018-02-23T00:59:44.856Z,30.80
2018-02-23T01:00:44.837Z,28.40
2018-02-23T01:01:44.819Z,32.10
2018-02-23T01:02:44.788Z,29.40
2018-02-23T01:03:44.767Z,30.30
2018-02-23T01:04:44.743Z,30.00
2018-02-23T01:05:44.718Z,31.20
2018-02-23T01:06:44.699Z,29.10
2018-02-23T01:07:44.674Z,30.90
2018-02-23T01:08:44.657Z,31.40
2018-02-23T01:09:44.631Z,34.20
2018-02-23T01:10:44.604Z,31.00
2018-02-23T01:11:44.632Z,31.60
2018-02-23T01:12:44.557Z,32.50
2018-02-23T01:13:44.541Z,30.30
2018-02-23T01:14:44.519Z,29.90
2018-02-23T01:15:44.493Z,32.90
2018-02-23T01:16:44.466Z,31.50
2018-02-23T01:17:44.448Z,31.30
2018-02-23T01:18:44.422Z,32.50
2018-02-23T01:19:44.409Z,30.90
2018-02-23T01:20:44.380Z,32.90
2018-02-23T01:21:44.390Z,33.30
2018-02-23T01:22:44.332Z,32.20
2018-02-23T01:23:44.304Z,31.60
2018-02-23T01:24:44.285Z,31.30
2018-02-23T01:25:44.259Z,32.90
2018-02-23T01:26:44.232Z,30.60
2018-02-23T01:27:44.224Z,31.70
2018-02-23T01:28:44.200Z,30.10
2018-02-23T01:29:44.175Z,33.40
2018-02-23T01:30:44.150Z,31.90
2018-02-23T01:31:44.138Z,32.40
2018-02-23T01:32:44.102Z,32.50
2018-02-23T01:33:44.076Z,31.60
2018-02-23T01:34:44.050Z,31.30
2018-02-23T01:35:44.035Z,34.50
2018-02-23T01:36:44.006Z,33.20
2018-02-23T01:37:43.979Z,34.30
2018-02-23T01:38:43.957Z,32.80
2018-02-23T01:39:43.933Z,31.70
2018-02-23T01:40:43.913Z,33.40
2018-02-23T01:41:43.890Z,34.30
2018-02-23T01:42:43.870Z,33.60
2018-02-23T01:43:43.846Z,33.40
2018-02-23T01:44:43.820Z,33.40
2018-02-23T01:45:43.800Z,34.30
2018-02-23T01:46:43.776Z,31.00
2018-02-23T01:47:43.766Z,35.90
2018-02-23T01:48:43.725Z,32.00
2018-02-23T01:49:43.710Z,32.50
2018-02-23T01:50:43.680Z,34.70
2018-02-23T01:51:43.659Z,34.20
2018-02-23T01:52:43.640Z,33.70
2018-02-23T01:53:43.609Z,32.50
2018-02-23T01:54:43.605Z,33.00
2018-02-23T01:55:43.574Z,33.10
2018-02-23T01:56:43.549Z,35.20
2018-02-23T01:57:43.520Z,35.70
2018-02-23T01:58:43.496Z,32.70
2018-02-23T01:59:43.471Z,34.00
2018-02-23T02:00:43.451Z,33.80
2018-02-23T02:01:43.428Z,36.40
2018-02-23T02:02:43.410Z,34.60
2018-02-23T02:03:43.380Z,36.80
2018-02-23T02:04:43.361Z,36.80
2018-02-23T02:05:43.339Z,33.90
2018-02-23T02:06:43.314Z,32.50
2018-02-23T02:07:43.288Z,36.00
2018-02-23T02:08:43.272Z,37.60
2018-02-23T02:09:43.245Z,33.70
2018-02-23T02:10:43.221Z,35.40
2018-02-23T02:11:43.197Z,37.00
2018-02-23T02:12:43.171Z,34.70
2018-02-23T02:13:43.151Z,38.20
2018-02-23T02:14:43.128Z,37.30
2018-02-23T02:15:43.112Z,34.80
2018-02-23T02:16:43.084Z,38.10
2018-02-23T02:17:43.061Z,38.20
2018-02-23T02:18:43.043Z,38.20
2018-02-23T02:19:43.023Z,36.10
2018-02-23T02:20:42.994Z,39.50
2018-02-23T02:21:42.969Z,39.60
2018-02-23T02:22:42.941Z,36.20
2018-02-23T02:23:42.917Z,36.70
2018-02-23T02:24:42.949Z,42.20
2018-02-23T02:25:42.870Z,37.70
2018-02-23T02:26:42.847Z,41.90
2018-02-23T02:27:42.826Z,38.90
2018-02-23T02:28:42.801Z,41.80
2018-02-23T02:29:42.775Z,42.60
2018-02-23T02:30:42.756Z,38.80
2018-02-23T02:31:42.746Z,41.00
2018-02-23T02:32:42.764Z,40.20
2018-02-23T02:33:42.693Z,42.40
2018-02-23T02:34:42.664Z,39.20
2018-02-23T02:35:42.636Z,39.60
2018-02-23T02:36:42.668Z,39.60
2018-02-23T02:37:42.591Z,41.20
2018-02-23T02:38:42.572Z,41.10
2018-02-23T02:39:42.552Z,40.40
2018-02-23T02:40:42.535Z,38.90
2018-02-23T02:41:42.499Z,41.30
2018-02-23T02:42:42.472Z,40.50
2018-02-23T02:43:42.452Z,41.10
2018-02-23T02:44:42.480Z,39.50
2018-02-23T02:45:42.402Z,44.30
2018-02-23T02:46:42.412Z,44.40
2018-02-23T02:47:42.357Z,44.50
2018-02-23T02:48:42.431Z,40.80
2018-02-23T02:49:42.310Z,41.40
2018-02-23T02:50:42.284Z,40.90
2018-02-23T02:51:42.266Z,44.40
2018-02-23T02:52:42.288Z,44.30
2018-02-23T02:53:42.218Z,42.20
2018-02-23T02:54:42.393Z,43.70
2018-02-23T02:55:42.171Z,43.10
2018-02-23T02:56:42.240Z,43.90
2018-02-23T02:57:42.122Z,44.70
2018-02-23T02:58:42.105Z,43.30
2018-02-23T02:59:42.074Z,44.40
2018-02-23T03:00:42.049Z,45.20
2018-02-23T03:01:42.029Z,45.00
2018-02-23T03:02:42.010Z,44.80
2018-02-23T03:03:42.000Z,41.90
2018-02-23T03:04:41.960Z,44.60
2018-02-23T03:05:41.941Z,40.80
2018-02-23T03:06:41.913Z,43.90
2018-02-23T03:07:41.890Z,43.60
2018-02-23T03:08:41.871Z,44.00
2018-02-23T03:09:41.843Z,45.90
2018-02-23T03:10:41.821Z,44.30
2018-02-23T03:11:41.791Z,42.70
2018-02-23T03:12:41.770Z,44.90
2018-02-23T03:13:41.748Z,43.30
2018-02-23T03:14:41.726Z,44.60
2018-02-23T03:15:41.698Z,45.70
2018-02-23T03:16:41.678Z,49.00
2018-02-23T03:17:41.654Z,44.10
2018-02-23T03:18:41.625Z,43.80
2018-02-23T03:19:41.610Z,45.40
2018-02-23T03:20:41.579Z,44.30
2018-02-23T03:21:41.559Z,46.90
2018-02-23T03:22:41.533Z,46.00
2018-02-23T03:23:41.510Z,47.90
2018-02-23T03:24:41.489Z,42.90
2018-02-23T03:25:41.464Z,49.50
2018-02-23T03:26:41.439Z,48.80
2018-02-23T03:27:41.419Z,42.70
2018-02-23T03:28:41.398Z,46.70
2018-02-23T03:29:41.371Z,46.10
2018-02-23T03:30:41.344Z,46.90
2018-02-23T03:31:41.321Z,47.70
2018-02-23T03:32:41.299Z,47.40
2018-02-23T03:33:41.276Z,45.50
2018-02-23T03:34:41.247Z,46.20
2018-02-23T03:35:41.227Z,51.40
2018-02-23T03:36:41.209Z,48.00
2018-02-23T03:37:41.182Z,48.30
2018-02-23T03:38:41.161Z,48.30
2018-02-23T03:39:41.143Z,49.00
2018-02-23T03:40:41.110Z,45.90
2018-02-23T03:41:41.092Z,50.30
2018-02-23T03:42:41.069Z,49.40
2018-02-23T03:43:41.037Z,49.30
2018-02-23T03:44:41.017Z,50.90
2018-02-23T03:45:40.989Z,51.60
2018-02-23T03:46:40.971Z,50.00
2018-02-23T03:47:40.950Z,52.20
2018-02-23T03:48:40.922Z,49.60
2018-02-23T03:49:40.901Z,54.70
2018-02-23T03:50:40.874Z,50.50
2018-02-23T03:51:40.851Z,53.20
2018-02-23T03:52:40.826Z,53.00
2018-02-23T03:53:40.804Z,53.50
2018-02-23T03:54:40.782Z,54.50
2018-02-23T03:55:40.763Z,53.20
2018-02-23T03:56:40.783Z,52.20
2018-02-23T03:57:40.713Z,52.20
2018-02-23T03:58:40.687Z,52.50
2018-02-23T03:59:40.659Z,49.50
2018-02-23T04:00:40.641Z,54.00
2018-02-23T04:01:40.612Z,56.40
2018-02-23T04:02:40.591Z,55.30
2018-02-23T04:03:40.569Z,56.40
2018-02-23T04:04:40.543Z,54.40
2018-02-23T04:05:40.525Z,53.20
2018-02-23T04:06:40.491Z,54.60
2018-02-23T04:07:40.466Z,57.10
2018-02-23T04:08:40.446Z,56.70
2018-02-23T04:09:40.421Z,53.10
2018-02-23T04:10:40.400Z,55.80
2018-02-23T04:11:40.381Z,55.30
2018-02-23T04:12:40.351Z,56.90
2018-02-23T04:13:40.327Z,54.80
2018-02-23T04:14:40.301Z,57.10
2018-02-23T04:15:40.282Z,58.10
2018-02-23T04:16:40.261Z,57.80
2018-02-23T04:17:40.231Z,59.30
2018-02-23T04:18:40.206Z,58.40
2018-02-23T04:19:40.181Z,56.00
2018-02-23T04:20:40.165Z,55.10
2018-02-23T04:21:40.138Z,59.40
2018-02-23T04:22:40.111Z,56.70
2018-02-23T04:23:40.090Z,60.40
2018-02-23T04:24:40.069Z,55.20
2018-02-23T04:25:40.041Z,54.90
2018-02-23T04:26:40.015Z,55.10
2018-02-23T04:27:39.990Z,53.70
2018-02-23T04:28:39.978Z,53.00
2018-02-23T04:29:39.945Z,53.80
2018-02-23T04:30:39.918Z,56.90
2018-02-23T04:31:39.901Z,51.90
2018-02-23T04:32:39.874Z,55.80
2018-02-23T04:33:39.850Z,53.40
2018-02-23T04:34:39.831Z,54.10
2018-02-23T04:35:39.798Z,56.20
2018-02-23T04:36:39.779Z,53.40
2018-02-23T04:37:39.751Z,53.10
2018-02-23T04:38:39.731Z,55.00
2018-02-23T04:39:39.716Z,51.60
2018-02-23T04:40:39.686Z,53.40
2018-02-23T04:41:39.670Z,55.10
2018-02-23T04:42:39.638Z,54.40
2018-02-23T04:43:39.609Z,57.40
2018-02-23T04:44:39.589Z,53.30
2018-02-23T04:45:39.616Z,54.60
2018-02-23T04:46:39.541Z,52.00
2018-02-23T04:47:39.517Z,55.00
2018-02-23T04:48:39.489Z,55.50
2018-02-23T04:49:39.469Z,56.90
2018-02-23T04:50:39.441Z,54.60
2018-02-23T04:51:39.491Z,53.00
2018-02-23T04:52:39.396Z,57.20
2018-02-23T04:53:39.377Z,57.20
2018-02-23T04:54:39.347Z,56.80
2018-02-23T04:55:39.329Z,58.00
2018-02-23T04:56:39.302Z,58.30
2018-02-23T04:57:39.282Z,59.10
2018-02-23T04:58:39.250Z,56.30
2018-02-23T04:59:39.241Z,54.90
2018-02-23T05:00:39.204Z,55.70
2018-02-23T05:01:39.187Z,55.20
2018-02-23T05:02:39.158Z,55.80
2018-02-23T05:03:39.129Z,58.10
2018-02-23T05:04:39.107Z,53.30
2018-02-23T05:05:39.090Z,56.50
2018-02-23T05:06:39.064Z,58.30
2018-02-23T05:07:39.031Z,57.50
2018-02-23T05:08:39.008Z,55.70
2018-02-23T05:09:38.989Z,54.80
2018-02-23T05:10:38.964Z,57.90
2018-02-23T05:11:38.936Z,55.80
2018-02-23T05:12:38.911Z,55.60
2018-02-23T05:13:38.889Z,57.30
2018-02-23T05:14:38.881Z,56.80
2018-02-23T05:15:38.838Z,57.70
2018-02-23T05:16:38.819Z,56.60
2018-02-23T05:17:38.799Z,55.00
2018-02-23T05:18:38.775Z,57.50
2018-02-23T05:19:38.745Z,56.10
2018-02-23T05:20:38.718Z,52.50
2018-02-23T05:21:38.691Z,54.50
2018-02-23T05:22:38.669Z,53.90
2018-02-23T05:23:38.650Z,54.50
2018-02-23T05:24:38.627Z,52.20
2018-02-23T05:25:38.597Z,57.60
2018-02-23T05:26:38.579Z,56.70
2018-02-23T05:27:38.548Z,56.30
2018-02-23T05:28:38.523Z,54.90
2018-02-23T05:29:38.500Z,53.10
2018-02-23T05:30:38.484Z,59.00
2018-02-23T05:31:38.451Z,55.20
2018-02-23T05:32:38.427Z,56.60
2018-02-23T05:33:38.404Z,54.20
2018-02-23T05:34:38.380Z,56.30
2018-02-23T05:35:38.359Z,55.80
2018-02-23T05:36:38.331Z,56.20
2018-02-23T05:37:38.311Z,55.30
2018-02-23T05:38:38.280Z,55.70
2018-02-23T05:39:38.263Z,52.30
2018-02-23T05:40:38.234Z,56.70
2018-02-23T05:41:38.216Z,52.60
2018-02-23T05:42:38.235Z,53.50
2018-02-23T05:43:38.161Z,57.80
2018-02-23T05:44:38.138Z,52.00
2018-02-23T05:45:38.110Z,58.90
2018-02-23T05:46:38.089Z,52.00
2018-02-23T05:47:38.064Z,53.30
2018-02-23T05:48:38.042Z,53.20
2018-02-23T05:49:38.022Z,52.60
2018-02-23T05:50:37.984Z,53.10
2018-02-23T05:51:37.961Z,54.70
2018-02-23T05:52:37.942Z,51.50
2018-02-23T05:53:37.922Z,52.10
2018-02-23T05:54:37.941Z,50.20
2018-02-23T05:55:37.866Z,52.90
2018-02-23T05:56:37.840Z,51.60
2018-02-23T05:57:37.820Z,49.80
2018-02-23T05:58:37.793Z,48.20
2018-02-23T05:59:37.783Z,47.30
2018-02-23T06:00:37.746Z,49.50
2018-02-23T06:01:37.719Z,52.60
2018-02-23T06:02:37.749Z,50.00
2018-02-23T06:03:37.668Z,49.20
2018-02-23T06:04:37.749Z,49.60
2018-02-23T06:05:37.621Z,48.80
2018-02-23T06:06:37.624Z,49.10
2018-02-23T06:07:37.574Z,51.10
2018-02-23T06:08:37.562Z,53.50
2018-02-23T06:09:37.522Z,50.80
2018-02-23T06:10:37.501Z,47.20
2018-02-23T06:11:37.477Z,48.70
2018-02-23T06:12:37.500Z,49.20
2018-02-23T06:13:37.428Z,49.50
2018-02-23T06:14:37.401Z,45.60
2018-02-23T06:15:37.383Z,48.70
2018-02-23T06:16:37.358Z,50.30
2018-02-23T06:17:37.329Z,49.30
2018-02-23T06:18:37.417Z,43.30
2018-02-23T06:19:37.278Z,47.00
2018-02-23T06:20:37.257Z,46.70
2018-02-23T06:21:37.233Z,47.00
2018-02-23T06:22:37.206Z,44.90
2018-02-23T06:23:37.185Z,46.70
2018-02-23T06:24:37.163Z,45.30
2018-02-23T06:25:37.139Z,45.60
2018-02-23T06:26:37.211Z,46.40
2018-02-23T06:27:37.090Z,48.80
2018-02-23T06:28:37.062Z,46.70
2018-02-23T06:29:37.034Z,44.40
2018-02-23T06:30:37.014Z,44.70
2018-02-23T06:31:36.989Z,42.20
2018-02-23T06:32:36.966Z,45.30
2018-02-23T06:33:36.938Z,43.80
2018-02-23T06:34:36.911Z,43.20
2018-02-23T06:35:36.892Z,43.50
2018-02-23T06:36:36.863Z,43.80
2018-02-23T06:37:36.844Z,44.40
2018-02-23T06:38:36.817Z,43.00
2018-02-23T06:39:36.792Z,43.50
2018-02-23T06:40:36.772Z,40.20
2018-02-23T06:41:36.755Z,40.60
2018-02-23T06:42:36.718Z,41.10
2018-02-23T06:43:36.696Z,43.30
2018-02-23T06:44:36.668Z,40.60
2018-02-23T06:45:36.649Z,41.40
2018-02-23T06:46:36.623Z,39.10
2018-02-23T06:47:36.597Z,44.30
2018-02-23T06:48:36.577Z,40.90
2018-02-23T06:49:36.549Z,41.70
2018-02-23T06:50:36.529Z,41.80
2018-02-23T06:51:36.505Z,43.40
2018-02-23T06:52:36.480Z,43.10
2018-02-23T06:53:36.455Z,38.80
2018-02-23T06:54:36.434Z,40.80
2018-02-23T06:55:36.412Z,42.10
2018-02-23T06:56:36.379Z,44.80
2018-02-23T06:57:36.358Z,41.00
2018-02-23T06:58:36.332Z,40.80
2018-02-23T06:59:36.308Z,37.50
2018-02-23T07:00:36.289Z,38.20
2018-02-23T07:01:36.268Z,40.70
2018-02-23T07:02:36.244Z,35.40
2018-02-23T07:03:36.220Z,36.80
2018-02-23T07:04:36.199Z,37.70
2018-02-23T07:05:36.178Z,37.50
2018-02-23T07:06:36.158Z,37.80
2018-02-23T07:07:36.133Z,36.60
2018-02-23T07:08:36.123Z,33.80
2018-02-23T07:09:36.095Z,33.20
2018-02-23T07:10:36.080Z,34.40
2018-02-23T07:11:36.064Z,32.20
2018-02-23T07:12:36.036Z,31.60
2018-02-23T07:13:36.015Z,32.50
2018-02-23T07:14:35.996Z,32.80
2018-02-23T07:15:35.984Z,30.80
2018-02-23T07:16:35.960Z,33.60
2018-02-23T07:17:35.936Z,32.70
2018-02-23T07:18:35.928Z,31.40
2018-02-23T07:19:35.908Z,31.50
2018-02-23T07:20:35.892Z,31.00
2018-02-23T07:21:35.869Z,31.80
2018-02-23T07:22:35.848Z,30.10
2018-02-23T07:23:35.832Z,30.10
2018-02-23T07:24:35.819Z,28.90
2018-02-23T07:25:35.797Z,29.80
2018-02-23T07:26:35.790Z,34.20
2018-02-23T07:27:35.765Z,31.50
2018-02-23T07:28:35.754Z,29.70
2018-02-23T07:29:35.742Z,29.30
2018-02-23T07:30:35.718Z,35.20
2018-02-23T07:31:35.702Z,30.30
2018-02-23T07:32:35.688Z,28.50
2018-02-23T07:33:35.686Z,29.40
2018-02-23T07:34:35.674Z,29.20
2018-02-23T07:35:35.648Z,27.80
2018-02-23T07:36:35.637Z,28.10
2018-02-23T07:37:35.628Z,27.90
2018-02-23T07:38:35.608Z,28.80
2018-02-23T07:39:35.599Z,29.10
2018-02-23T07:40:35.576Z,28.90
2018-02-23T07:41:35.567Z,27.40
2018-02-23T07:42:35.560Z,27.50
2018-02-23T07:43:35.545Z,26.20
2018-02-23T07:44:35.529Z,26.90
2018-02-23T07:45:35.519Z,27.90
2018-02-23T07:46:35.504Z,26.50
2018-02-23T07:47:35.501Z,27.50
2018-02-23T07:48:35.489Z,25.50
2018-02-23T07:49:35.469Z,25.80
2018-02-23T07:50:35.458Z,26.30
2018-02-23T07:51:35.449Z,26.00
2018-02-23T07:52:35.446Z,27.60
2018-02-23T07:53:35.429Z,25.50
2018-02-23T07:54:35.432Z,25.30
2018-02-23T07:55:35.408Z,24.30
2018-02-23T07:56:35.399Z,24.10
2018-02-23T07:57:35.391Z,24.30
2018-02-23T07:58:35.375Z,23.40
2018-02-23T07:59:35.364Z,23.40
2018-02-23T08:00:35.360Z,22.90
2018-02-23T08:01:35.346Z,28.40
2018-02-23T08:02:35.339Z,22.20
2018-02-23T08:03:35.329Z,22.90
2018-02-23T08:04:35.318Z,23.70
2018-02-23T08:05:35.312Z,21.10
2018-02-23T08:06:35.291Z,20.50
2018-02-23T08:07:35.282Z,20.50
2018-02-23T08:08:35.281Z,20.20
2018-02-23T08:09:35.263Z,19.80
2018-02-23T08:10:35.254Z,19.20
2018-02-23T08:11:35.251Z,18.60
2018-02-23T08:12:35.240Z,18.30
2018-02-23T08:13:35.228Z,18.00
2018-02-23T08:14:35.225Z,18.40
2018-02-23T08:15:35.218Z,17.10
2018-02-23T08:16:35.201Z,17.20
2018-02-23T08:17:35.198Z,16.20
2018-02-23T08:18:35.188Z,16.70
2018-02-23T08:19:35.178Z,16.90
2018-02-23T08:20:35.171Z,16.60
2018-02-23T08:21:35.157Z,18.20
2018-02-23T08:22:35.148Z,16.40
2018-02-23T08:23:35.142Z,16.60
2018-02-23T08:24:35.143Z,18.20
2018-02-23T08:25:35.129Z,16.40
2018-02-23T08:26:35.118Z,15.70
2018-02-23T08:27:35.110Z,16.50
2018-02-23T08:28:35.098Z,17.20
2018-02-23T08:29:35.087Z,17.10
2018-02-23T08:30:35.078Z,17.20
2018-02-23T08:31:35.058Z,17.00
2018-02-23T08:32:35.054Z,16.40
2018-02-23T08:33:35.037Z,17.80
2018-02-23T08:34:35.019Z,16.40
2018-02-23T08:35:35.001Z,17.20
2018-02-23T08:36:34.988Z,17.10
2018-02-23T08:37:34.974Z,16.10
2018-02-23T08:38:34.961Z,17.10
2018-02-23T08:39:34.943Z,16.40
2018-02-23T08:40:34.922Z,16.20
2018-02-23T08:41:34.905Z,17.10
2018-02-23T08:42:34.889Z,17.40
2018-02-23T08:43:34.877Z,15.70
2018-02-23T08:44:34.851Z,16.80
2018-02-23T08:45:34.839Z,18.10
2018-02-23T08:46:34.818Z,18.20
2018-02-23T08:47:34.795Z,18.20
2018-02-23T08:48:34.777Z,18.00
2018-02-23T08:49:34.756Z,17.60
2018-02-23T08:50:34.738Z,19.60
2018-02-23T08:51:34.720Z,16.40
2018-02-23T08:52:34.700Z,17.20
2018-02-23T08:53:34.681Z,16.60
2018-02-23T08:54:34.659Z,18.50
2018-02-23T08:55:34.640Z,18.30
2018-02-23T08:56:34.615Z,17.70
2018-02-23T08:57:34.599Z,18.50
2018-02-23T08:58:34.578Z,16.30
2018-02-23T08:59:34.557Z,16.70
2018-02-23T09:00:34.537Z,18.10
2018-02-23T09:01:34.519Z,16.90
2018-02-23T09:02:34.499Z,18.20
2018-02-23T09:03:34.477Z,19.20
2018-02-23T09:04:34.451Z,18.30
2018-02-23T09:05:34.434Z,17.80
2018-02-23T09:06:34.413Z,15.80
2018-02-23T09:07:34.389Z,17.20
2018-02-23T09:08:34.371Z,17.40
2018-02-23T09:09:34.349Z,16.40
2018-02-23T09:10:34.330Z,15.60
2018-02-23T09:11:34.308Z,19.40
2018-02-23T09:12:34.343Z,19.80
2018-02-23T09:13:34.270Z,21.70
2018-02-23T09:14:34.249Z,17.60
2018-02-23T09:15:34.228Z,18.10
2018-02-23T09:16:34.202Z,24.00
2018-02-23T09:17:34.189Z,18.80
2018-02-23T09:18:34.163Z,18.00
2018-02-23T09:19:34.149Z,17.10
2018-02-23T09:20:34.120Z,16.30
2018-02-23T09:21:34.103Z,17.30
2018-02-23T09:22:34.089Z,16.70
2018-02-23T09:23:34.067Z,16.40
2018-02-23T09:24:34.058Z,16.00
2018-02-23T09:25:34.031Z,15.90
2018-02-23T09:26:34.009Z,16.40
2018-02-23T09:27:33.991Z,15.20
2018-02-23T09:28:33.975Z,15.60
2018-02-23T09:29:33.965Z,16.70
2018-02-23T09:30:33.940Z,17.20
2018-02-23T09:31:33.919Z,16.90
2018-02-23T09:32:33.900Z,16.00
2018-02-23T09:33:33.888Z,16.30
2018-02-23T09:34:33.866Z,15.90
2018-02-23T09:35:33.849Z,16.40
2018-02-23T09:36:33.830Z,15.70
2018-02-23T09:37:33.821Z,18.70
2018-02-23T09:38:33.795Z,16.20
2018-02-23T09:39:33.789Z,18.00
2018-02-23T09:40:33.760Z,17.50
2018-02-23T09:41:33.748Z,15.10
2018-02-23T09:42:33.721Z,17.60
2018-02-23T09:43:33.709Z,15.10
2018-02-23T09:44:33.692Z,17.50
2018-02-23T09:45:33.673Z,15.40
2018-02-23T09:46:33.650Z,18.60
2018-02-23T09:47:33.641Z,18.50
2018-02-23T09:48:33.624Z,17.70
2018-02-23T09:49:33.605Z,16.20
2018-02-23T09:50:33.582Z,15.60
2018-02-23T09:51:33.571Z,16.50
2018-02-23T09:52:33.554Z,16.40
2018-02-23T09:53:33.544Z,15.20
2018-02-23T09:54:33.511Z,14.90
2018-02-23T09:55:33.490Z,16.50
2018-02-23T09:56:33.479Z,14.90
2018-02-23T09:57:33.459Z,15.20
2018-02-23T09:58:33.448Z,14.10
2018-02-23T09:59:33.432Z,15.40
2018-02-23T10:00:33.415Z,14.80
2018-02-23T10:01:33.409Z,14.70
2018-02-23T10:02:33.382Z,14.00
2018-02-23T10:03:33.367Z,14.10
2018-02-23T10:04:33.349Z,14.60
2018-02-23T10:05:33.341Z,21.00
2018-02-23T10:06:33.322Z,16.50
2018-02-23T10:07:33.308Z,13.50
2018-02-23T10:08:33.296Z,13.20
2018-02-23T10:09:33.272Z,12.70
2018-02-23T10:10:33.286Z,13.80
2018-02-23T10:11:33.255Z,14.30
2018-02-23T10:12:33.243Z,15.10
2018-02-23T10:13:33.217Z,13.40
2018-02-23T10:14:33.206Z,13.50
2018-02-23T10:15:33.193Z,12.80
2018-02-23T10:16:33.182Z,13.20
2018-02-23T10:17:33.169Z,12.90
2018-02-23T10:18:33.160Z,12.60
2018-02-23T10:19:33.143Z,12.60
2018-02-23T10:20:33.141Z,12.40
2018-02-23T10:21:33.119Z,12.50
2018-02-23T10:22:33.104Z,12.40
2018-02-23T10:23:33.105Z,11.90
2018-02-23T10:24:33.080Z,11.50
2018-02-23T10:25:33.173Z,11.90
2018-02-23T10:26:33.054Z,11.90
2018-02-23T10:27:33.133Z,11.30
2018-02-23T10:28:33.032Z,11.00
2018-02-23T10:29:33.087Z,10.90
2018-02-23T10:30:33.008Z,10.70
2018-02-23T10:31:32.998Z,10.90
2018-02-23T10:32:32.988Z,11.10
2018-02-23T10:33:33.081Z,11.00
2018-02-23T10:34:32.962Z,11.10
2018-02-23T10:35:33.049Z,10.60
2018-02-23T10:36:32.937Z,11.60
2018-02-23T10:37:32.984Z,10.60
2018-02-23T10:38:32.915Z,10.40
2018-02-23T10:39:32.952Z,10.30
2018-02-23T10:40:32.889Z,10.90
2018-02-23T10:41:32.927Z,10.60
2018-02-23T10:42:32.877Z,9.20
2018-02-23T10:43:32.851Z,9.70
2018-02-23T10:44:32.841Z,9.50
2018-02-23T10:45:32.828Z,9.30
2018-02-23T10:46:32.812Z,9.20
2018-02-23T10:47:32.850Z,9.40
2018-02-23T10:48:32.789Z,9.30
2018-02-23T10:49:32.788Z,8.40
2018-02-23T10:50:32.760Z,8.10
2018-02-23T10:51:32.748Z,8.60
2018-02-23T10:52:32.743Z,9.40
2018-02-23T10:53:32.726Z,8.30
2018-02-23T10:54:32.714Z,8.60
2018-02-23T10:55:32.699Z,9.40
2018-02-23T10:56:32.688Z,8.10
2018-02-23T10:57:32.674Z,8.90
2018-02-23T10:58:32.663Z,8.20
2018-02-23T10:59:32.647Z,8.40
2018-02-23T11:00:32.634Z,8.00
2018-02-23T11:01:32.623Z,8.10
2018-02-23T11:02:32.607Z,8.50
2018-02-23T11:03:32.603Z,9.00
2018-02-23T11:04:32.589Z,8.50
2018-02-23T11:05:32.572Z,8.90
2018-02-23T11:06:32.557Z,8.50
2018-02-23T11:07:32.549Z,8.70
2018-02-23T11:08:32.529Z,8.90
2018-02-23T11:09:32.515Z,8.70
2018-02-23T11:10:32.507Z,8.70
2018-02-23T11:11:32.499Z,9.20
2018-02-23T11:12:32.496Z,8.70
2018-02-23T11:13:32.474Z,9.70
2018-02-23T11:14:32.451Z,9.30
2018-02-23T11:15:32.435Z,10.10
2018-02-23T11:16:32.421Z,9.60
2018-02-23T11:17:32.426Z,10.40
2018-02-23T11:18:32.416Z,10.20
2018-02-23T11:19:32.375Z,9.70
2018-02-23T11:20:32.370Z,9.60
2018-02-23T11:21:32.352Z,10.20
2018-02-23T11:22:32.336Z,9.60
2018-02-23T11:23:32.328Z,10.50
2018-02-23T11:24:32.317Z,9.70
2018-02-23T11:25:32.296Z,10.10
2018-02-23T11:26:32.283Z,10.00
2018-02-23T11:27:32.269Z,10.00
2018-02-23T11:28:32.257Z,10.70
2018-02-23T11:29:32.238Z,9.80
2018-02-23T11:30:32.228Z,12.60
2018-02-23T11:31:32.262Z,9.70
2018-02-23T11:32:32.211Z,10.40
2018-02-23T11:33:32.186Z,10.40
2018-02-23T11:34:32.168Z,10.60
2018-02-23T11:35:32.170Z,10.40
2018-02-23T11:36:32.140Z,11.00
2018-02-23T11:37:32.130Z,11.30
2018-02-23T11:38:32.120Z,11.00
2018-02-23T11:39:32.101Z,11.00
2018-02-23T11:40:32.083Z,11.20
2018-02-23T11:41:32.075Z,11.20
2018-02-23T11:42:32.056Z,11.30
2018-02-23T11:43:32.039Z,11.40
2018-02-23T11:44:32.029Z,11.00
2018-02-23T11:45:32.009Z,11.90
2018-02-23T11:46:31.993Z,11.20
2018-02-23T11:47:31.980Z,11.40
2018-02-23T11:48:31.968Z,11.80
2018-02-23T11:49:31.960Z,10.90
2018-02-23T11:50:31.939Z,11.90
2018-02-23T11:51:31.919Z,11.70
2018-02-23T11:52:31.913Z,12.70
2018-02-23T11:53:31.891Z,11.90
2018-02-23T11:54:31.874Z,13.10
2018-02-23T11:55:31.862Z,11.90
2018-02-23T11:56:31.845Z,13.60
2018-02-23T11:57:31.829Z,12.90
2018-02-23T11:58:31.819Z,12.80
2018-02-23T11:59:31.810Z,13.30
2018-02-23T12:00:31.788Z,13.00
2018-02-23T12:01:31.768Z,13.20
2018-02-23T12:02:31.762Z,12.60
2018-02-23T12:03:31.744Z,13.10
2018-02-23T12:04:31.725Z,13.40
2018-02-23T12:05:31.718Z,12.60
2018-02-23T12:06:31.695Z,12.50
2018-02-23T12:07:31.674Z,13.10
2018-02-23T12:08:31.711Z,13.10
2018-02-23T12:09:31.642Z,13.20
2018-02-23T12:10:31.628Z,13.30
2018-02-23T12:11:31.613Z,12.60
2018-02-23T12:12:31.598Z,13.50
2018-02-23T12:13:31.587Z,13.40
2018-02-23T12:14:31.669Z,14.00
2018-02-23T12:15:31.548Z,12.60
2018-02-23T12:16:31.555Z,12.80
2018-02-23T12:17:31.517Z,13.90
2018-02-23T12:18:31.606Z,13.80
2018-02-23T12:19:31.486Z,14.20
2018-02-23T12:20:31.528Z,12.40
2018-02-23T12:21:31.468Z,13.60
2018-02-23T12:22:31.462Z,12.90
2018-02-23T12:23:31.423Z,14.50
2018-02-23T12:24:31.410Z,13.70
2018-02-23T12:25:31.390Z,13.90
2018-02-23T12:26:31.423Z,14.50
2018-02-23T12:27:31.363Z,14.30
2018-02-23T12:28:31.395Z,13.10
2018-02-23T12:29:31.331Z,13.80
2018-02-23T12:30:31.360Z,13.50
2018-02-23T12:31:31.299Z,14.20
2018-02-23T12:32:31.281Z,14.90
2018-02-23T12:33:31.266Z,14.00
2018-02-23T12:34:31.247Z,13.70
2018-02-23T12:35:31.231Z,13.40
2018-02-23T12:36:31.225Z,13.40
2018-02-23T12:37:31.201Z,13.50
2018-02-23T12:38:31.241Z,13.60
2018-02-23T12:39:31.166Z,13.10
2018-02-23T12:40:31.152Z,13.10
2018-02-23T12:41:31.138Z,13.30
2018-02-23T12:42:31.119Z,13.80
2018-02-23T12:43:31.100Z,13.00
2018-02-23T12:44:31.094Z,13.40
2018-02-23T12:45:31.081Z,13.40
2018-02-23T12:46:31.104Z,11.70
2018-02-23T12:47:31.041Z,13.10
2018-02-23T12:48:31.033Z,12.90
2018-02-23T12:49:31.010Z,12.60
2018-02-23T12:50:30.989Z,12.70
2018-02-23T12:51:30.971Z,12.90
2018-02-23T12:52:30.956Z,13.30
2018-02-23T12:53:30.940Z,12.60